createdAt,value
2022-12-07T00:04:44.414Z,93.10
2022-12-07T00:09:46.418Z,93.53
2022-12-07T00:14:47.842Z,92.55
2022-12-07T00:19:49.290Z,92.85
2022-12-07T00:24:50.705Z,93.32
2022-12-07T00:29:52.131Z,92.96
2022-12-07T00:34:53.552Z,93.04
2022-12-07T00:39:54.976Z,92.69
2022-12-07T00:44:56.422Z,92.89
2022-12-07T00:49:57.830Z,92.27
2022-12-07T00:54:59.239Z,92.41
2022-12-07T01:00:01.524Z,92.33
2022-12-07T01:05:03.299Z,92.64
2022-12-07T01:10:05.512Z,92.08
2022-12-07T01:15:08.240Z,92.91
2022-12-07T01:20:10.509Z,92.52
2022-12-07T01:25:12.329Z,91.92
2022-12-07T01:30:14.290Z,92.00
2022-12-07T01:35:15.794Z,92.16
2022-12-07T01:40:17.256Z,92.92
2022-12-07T01:45:18.642Z,92.67
2022-12-07T01:50:22.279Z,91.76
2022-12-07T01:55:25.001Z,91.36
2022-12-07T02:00:26.463Z,91.11
2022-12-07T02:05:28.425Z,91.83
2022-12-07T02:10:32.628Z,91.25
2022-12-07T02:15:37.999Z,91.18
2022-12-07T02:20:51.137Z,91.47
2022-12-07T02:26:11.667Z,91.69
2022-12-07T02:31:19.607Z,91.57
2022-12-07T02:36:25.415Z,91.49
2022-12-07T02:41:36.751Z,91.68
2022-12-07T02:46:43.023Z,90.97
2022-12-07T02:51:47.075Z,91.08
2022-12-07T02:57:17.969Z,91.10
2022-12-07T03:02:36.436Z,90.98
2022-12-07T03:08:27.192Z,90.70
2022-12-07T03:13:46.707Z,90.61
2022-12-07T03:18:57.076Z,90.72
2022-12-07T03:24:05.960Z,90.33
2022-12-07T03:29:20.181Z,89.63
2022-12-07T03:34:31.427Z,90.08
2022-12-07T03:40:11.809Z,88.98
2022-12-07T03:45:14.458Z,90.24
2022-12-07T03:50:49.683Z,89.72
2022-12-07T03:55:53.423Z,89.83
2022-12-07T04:00:55.075Z,90.07
2022-12-07T04:05:56.894Z,90.96
2022-12-07T04:10:58.429Z,90.76
2022-12-07T04:15:59.890Z,90.22
2022-12-07T04:21:01.339Z,89.45
2022-12-07T04:26:02.894Z,89.57
2022-12-07T04:31:04.425Z,89.45
2022-12-07T04:36:06.456Z,89.50
2022-12-07T04:41:09.016Z,89.84
2022-12-07T04:46:10.525Z,89.22
2022-12-07T04:51:11.982Z,89.36
2022-12-07T04:56:13.863Z,89.45
2022-12-07T05:01:17.502Z,89.52
2022-12-07T05:06:19.091Z,89.18
2022-12-07T05:11:38.810Z,89.50
2022-12-07T05:16:41.886Z,90.17
2022-12-07T05:21:43.569Z,90.27
2022-12-07T05:26:46.059Z,90.44
2022-12-07T05:31:47.500Z,90.79
2022-12-07T05:36:49.113Z,90.17
2022-12-07T05:42:09.046Z,90.84
2022-12-07T05:47:11.544Z,90.69
2022-12-07T05:52:13.122Z,90.46
2022-12-07T05:57:14.802Z,91.48
2022-12-07T06:02:17.828Z,91.86
2022-12-07T06:07:19.297Z,91.91
2022-12-07T06:12:35.575Z,92.11
2022-12-07T06:17:37.637Z,92.63
2022-12-07T06:22:39.075Z,91.79
2022-12-07T06:27:40.488Z,92.01
2022-12-07T06:32:41.895Z,91.05
2022-12-07T06:37:43.380Z,91.67
2022-12-07T06:42:44.948Z,91.51
2022-12-07T06:47:46.958Z,91.75
2022-12-07T06:52:48.781Z,92.09
2022-12-07T06:57:50.258Z,91.91
2022-12-07T07:02:51.701Z,91.49
2022-12-07T07:08:20.946Z,90.32
2022-12-07T07:13:14.609Z,88.32
2022-12-07T07:18:16.094Z,88.49
2022-12-07T07:23:17.960Z,89.65
2022-12-07T07:28:19.388Z,90.11
2022-12-07T07:33:20.817Z,90.64
2022-12-07T07:38:22.269Z,91.70
2022-12-07T07:43:23.795Z,92.34
2022-12-07T07:48:26.198Z,92.32
2022-12-07T07:53:27.629Z,92.91
2022-12-07T07:58:29.100Z,93.63
2022-12-07T08:03:30.587Z,93.13
2022-12-07T08:08:32.588Z,93.57
2022-12-07T08:13:34.173Z,93.89
2022-12-07T08:18:40.646Z,93.51
2022-12-07T08:23:42.480Z,93.82
2022-12-07T08:28:44.458Z,93.65
2022-12-07T08:33:47.725Z,92.99
2022-12-07T08:39:22.518Z,93.65
2022-12-07T08:44:10.734Z,93.23
2022-12-07T08:49:17.337Z,93.66
2022-12-07T08:54:19.877Z,93.27
2022-12-07T08:59:21.864Z,93.83
2022-12-07T09:04:23.327Z,93.24
2022-12-07T09:09:24.855Z,93.80
2022-12-07T09:14:26.295Z,93.75
2022-12-07T09:19:27.908Z,93.99
2022-12-07T09:24:29.396Z,93.14
2022-12-07T09:29:30.807Z,92.95
2022-12-07T09:34:33.118Z,92.64
2022-12-07T09:39:34.714Z,92.75
2022-12-07T09:44:36.601Z,92.90
2022-12-07T09:49:38.136Z,92.33
2022-12-07T09:54:44.737Z,93.10
2022-12-07T09:59:46.252Z,93.47
2022-12-07T10:04:47.795Z,92.29
2022-12-07T10:09:49.812Z,91.97
2022-12-07T10:15:07.965Z,93.06
2022-12-07T10:20:13.109Z,92.86
2022-12-07T10:25:20.916Z,92.29
2022-12-07T10:30:22.333Z,92.58
2022-12-07T10:35:30.119Z,92.04
2022-12-07T10:40:38.723Z,91.76
2022-12-07T10:46:19.440Z,91.21
2022-12-07T10:51:47.704Z,91.75
2022-12-07T10:57:05.779Z,92.15
2022-12-07T11:02:21.999Z,92.36
2022-12-07T11:07:41.941Z,92.26
2022-12-07T11:13:05.373Z,91.55
2022-12-07T11:18:13.068Z,92.36
2022-12-07T11:23:25.645Z,91.38
2022-12-07T11:29:05.715Z,88.66
2022-12-07T11:34:23.254Z,92.34
2022-12-07T11:39:28.152Z,93.37
2022-12-07T11:44:33.664Z,93.22
2022-12-07T11:49:43.371Z,93.32
2022-12-07T11:54:49.280Z,93.61
2022-12-07T11:59:54.823Z,93.70
2022-12-07T12:05:06.030Z,93.92
2022-12-07T12:10:15.483Z,92.86
2022-12-07T12:15:50.490Z,93.17
2022-12-07T12:20:59.392Z,87.69
2022-12-07T12:26:04.607Z,86.58
2022-12-07T12:31:12.226Z,88.12
2022-12-07T12:36:16.756Z,90.20
2022-12-07T12:41:36.687Z,91.30
2022-12-07T12:46:49.649Z,91.88
2022-12-07T12:51:51.446Z,92.01
2022-12-07T12:57:15.713Z,92.23
2022-12-07T13:02:23.225Z,92.76
2022-12-07T13:07:52.677Z,93.45
2022-12-07T13:13:01.582Z,94.09
2022-12-07T13:18:05.026Z,95.27
2022-12-07T13:23:08.046Z,95.66
2022-12-07T13:28:17.597Z,95.94
2022-12-07T13:33:20.155Z,96.67
2022-12-07T13:38:29.791Z,95.67
2022-12-07T13:43:31.488Z,95.88
2022-12-07T13:48:45.124Z,95.69
2022-12-07T13:53:53.228Z,95.92
2022-12-07T13:58:55.511Z,95.68
2022-12-07T14:03:57.102Z,95.32
2022-12-07T14:09:18.761Z,95.95
2022-12-07T14:14:36.501Z,95.40
2022-12-07T14:19:48.358Z,95.49
2022-12-07T14:24:50.947Z,95.01
2022-12-07T14:29:52.635Z,94.51
2022-12-07T14:35:13.725Z,94.54
2022-12-07T14:40:19.893Z,94.63
2022-12-07T14:45:23.722Z,94.18
2022-12-07T14:50:25.464Z,93.43
2022-12-07T14:55:29.593Z,93.32
2022-12-07T15:00:31.096Z,94.13
2022-12-07T15:05:34.049Z,94.29
2022-12-07T15:10:39.460Z,94.32
2022-12-07T15:15:40.922Z,93.22
2022-12-07T15:20:42.427Z,93.35
2022-12-07T15:25:45.549Z,93.07
2022-12-07T15:30:47.004Z,93.84
2022-12-07T15:35:48.534Z,93.18
2022-12-07T15:40:50.030Z,93.27
2022-12-07T15:45:51.459Z,92.92
2022-12-07T15:50:52.912Z,93.09
2022-12-07T15:55:54.358Z,93.41
2022-12-07T16:00:55.755Z,93.06
2022-12-07T16:05:57.158Z,93.21
2022-12-07T16:10:58.595Z,92.45
2022-12-07T16:16:08.294Z,92.01
2022-12-07T16:21:09.855Z,92.62
2022-12-07T16:26:19.698Z,92.91
2022-12-07T16:31:23.896Z,92.37
2022-12-07T16:37:01.915Z,92.33
2022-12-07T16:41:49.475Z,91.94
2022-12-07T16:46:50.952Z,91.94
2022-12-07T16:52:14.963Z,92.15
2022-12-07T16:57:19.985Z,92.24
2022-12-07T17:09:46.573Z,93.12
2022-12-07T17:26:28.357Z,92.44
2022-12-07T17:31:33.840Z,92.44
2022-12-07T17:36:35.364Z,92.61
2022-12-07T17:41:55.903Z,92.51
2022-12-07T17:47:03.243Z,92.39
2022-12-07T17:52:23.597Z,92.56
2022-12-07T17:57:25.110Z,92.42
2022-12-07T18:02:26.643Z,92.60
2022-12-07T18:07:28.083Z,91.75
2022-12-07T18:12:29.500Z,92.05
2022-12-07T18:17:31.035Z,91.40
2022-12-07T18:22:32.451Z,91.68
2022-12-07T18:27:33.865Z,91.60
2022-12-07T18:32:35.258Z,91.33
2022-12-07T18:37:36.704Z,92.25
2022-12-07T18:42:38.130Z,92.09
2022-12-07T18:47:39.591Z,91.12
2022-12-07T18:52:41.005Z,91.37
2022-12-07T18:57:42.419Z,91.05
2022-12-07T19:02:43.869Z,90.93
2022-12-07T19:07:46.018Z,91.05
2022-12-07T19:12:48.354Z,91.32
2022-12-07T19:17:49.804Z,92.02
2022-12-07T19:22:51.192Z,92.38
2022-12-07T19:27:52.570Z,91.66
2022-12-07T19:32:53.951Z,92.41
2022-12-07T19:37:55.331Z,92.01
2022-12-07T19:42:56.727Z,92.20
2022-12-07T19:47:58.136Z,92.16
2022-12-07T19:52:59.537Z,92.23
2022-12-07T19:58:00.987Z,92.39
2022-12-07T20:03:02.502Z,92.09
2022-12-07T20:08:04.243Z,92.57
2022-12-07T20:13:24.539Z,92.56
2022-12-07T20:18:25.994Z,92.10
2022-12-07T20:23:29.275Z,91.53
2022-12-07T20:28:30.732Z,91.74
2022-12-07T20:33:32.395Z,91.98
2022-12-07T20:38:33.911Z,92.04
2022-12-07T20:43:35.310Z,91.55
2022-12-07T20:48:36.715Z,91.50
2022-12-07T20:53:38.176Z,91.98
2022-12-07T20:58:39.572Z,91.47
2022-12-07T21:03:41.177Z,91.54
2022-12-07T21:08:50.946Z,91.07
2022-12-07T21:13:52.331Z,91.43
2022-12-07T21:18:55.398Z,92.12
2022-12-07T21:24:02.040Z,91.59
2022-12-07T21:29:06.374Z,91.66
2022-12-07T21:34:07.782Z,91.40
2022-12-07T21:39:09.188Z,91.44
2022-12-07T21:44:10.614Z,91.06
2022-12-07T21:49:14.291Z,92.08
2022-12-07T21:54:15.692Z,92.48
2022-12-07T21:59:21.152Z,92.34
2022-12-07T22:04:25.280Z,91.93
2022-12-07T22:09:29.834Z,92.65
2022-12-07T22:14:49.783Z,91.83
2022-12-07T22:19:51.180Z,91.68
2022-12-07T22:24:52.635Z,91.83
2022-12-07T22:29:54.054Z,92.03
2022-12-07T22:34:55.464Z,92.01
2022-12-07T22:39:56.947Z,92.14
2022-12-07T22:44:58.344Z,92.28
2022-12-07T22:50:00.358Z,92.33
2022-12-07T22:55:02.236Z,92.01
2022-12-07T23:00:08.933Z,91.63
2022-12-07T23:05:11.659Z,91.88
2022-12-07T23:10:13.098Z,91.33
2022-12-07T23:15:14.502Z,91.70
2022-12-07T23:20:16.074Z,91.42
2022-12-07T23:25:17.654Z,90.88
2022-12-07T23:30:19.066Z,91.36
2022-12-07T23:35:20.513Z,91.43
2022-12-07T23:40:21.976Z,90.83
2022-12-07T23:45:23.388Z,91.00
2022-12-07T23:50:24.792Z,91.62
2022-12-07T23:55:26.206Z,91.72
